Latest Weather Observations for Bourke

IDN60801

Issued at 4:05 pm EST Saturday 30 August 2014 (issued every 30 minutes, with the page automatically refreshed every 10 minutes)

About weather observations | Map of weather stations | Latest weather observations for NSW | Other Formats
Station Details ID: 048245 Name: BOURKE AIRPORT AWS Lat: -30.04 Lon: 145.95 Height: 107.3 m
Data from the previous 72 hours. | See also: Recent months at Bourke
Date/Time
EST
Temp
°C
App
Temp
°C
Dew
Point
Rel
Hum
%
Delta-T
°C
Wind Press
QNH
hPa
Press
MSL
hPa
Rain
since 9 am
mm
Dir
 
Spd
km/h
Gust
km/h
Spd
kts
Gust
kts
30/04:00pm 23.1 19.4 0.2 22 10.4 S 9 20 5 11 1020.2 1020.2 0.0
30/03:30pm 23.0 18.9 -0.5 21 10.6 S 11 19 6 10 1020.3 - 0.0
30/03:00pm 22.7 18.7 0.5 23 10.1 SSE 11 17 6 9 1020.5 1020.5 0.0
30/02:30pm 22.7 19.2 1.1 24 10.0 S 9 19 5 10 1020.8 - 0.0
30/02:00pm 22.1 18.1 2.8 28 9.2 E 13 20 7 11 1021.5 1021.5 0.0
30/01:30pm 22.2 18.5 2.3 27 9.4 E 11 17 6 9 1021.9 - 0.0
30/01:00pm 21.5 16.9 1.7 27 9.2 ESE 15 24 8 13 1022.4 1022.4 0.0
30/12:30pm 21.0 16.8 1.8 28 8.9 ESE 13 17 7 9 1023.0 - 0.0
30/12:00pm 20.7 15.9 2.5 30 8.5 ESE 17 24 9 13 1023.5 1023.5 0.0
30/11:30am 20.6 16.7 3.3 32 8.2 ENE 13 20 7 11 1023.8 - 0.0
30/11:00am 19.9 16.1 4.0 35 7.6 E 13 20 7 11 1024.4 1024.4 0.0
30/10:30am 18.9 15.2 4.7 39 6.8 ENE 13 20 7 11 1024.7 - 0.0
30/10:00am 17.3 14.5 5.3 45 5.8 ENE 9 15 5 8 1025.0 1025.0 0.0
30/09:30am 16.1 13.0 5.4 49 5.1 E 11 15 6 8 1025.1 - 0.0
30/09:00am 14.3 11.5 5.1 54 4.3 SE 9 11 5 6 1025.2 1025.2 0.0
30/08:30am 13.1 10.3 5.3 59 3.7 S 9 13 5 7 1025.3 - 0.0
30/08:00am 11.2 8.5 5.7 69 2.5 S 9 9 5 5 1025.1 1025.1 0.0
30/07:30am 8.7 6.3 5.3 79 1.5 SW 7 9 4 5 1024.8 - 0.0
30/07:00am 4.5 1.6 2.7 88 0.7 SW 7 9 4 5 1024.6 1024.6 0.0
30/06:30am 4.3 1.4 2.5 88 0.7 S 7 9 4 5 1024.3 - 0.0
30/06:00am 4.3 1.5 2.0 85 0.9 S 6 7 3 4 1023.8 1023.8 0.0
30/05:30am 4.9 2.1 1.9 81 1.2 S 6 7 3 4 1023.6 - 0.0
30/05:00am 6.1 3.2 2.6 78 1.4 S 7 9 4 5 1023.5 1023.5 0.0
30/04:30am 5.8 2.5 2.4 79 1.4 S 9 11 5 6 1023.5 - 0.0
30/04:00am 7.0 3.9 3.4 78 1.5 SSE 9 11 5 6 1023.5 1023.5 0.0
30/03:30am 5.9 3.0 2.5 79 1.4 S 7 7 4 4 1023.5 - 0.0
30/03:00am 6.6 3.0 2.9 77 1.5 SW 11 13 6 7 1023.5 1023.5 0.0
30/02:30am 6.7 4.0 3.5 80 1.4 SE 7 9 4 5 1023.6 - 0.0
30/02:00am 6.7 3.9 3.1 78 1.5 SE 7 7 4 4 1023.7 1023.7 0.0
30/01:30am 7.2 5.0 3.3 76 1.7 ESE 4 6 2 3 1023.7 - 0.0
30/01:00am 7.8 5.5 2.7 70 2.1 ESE 4 6 2 3 1023.8 1023.8 0.0
30/12:30am 8.3 6.0 3.0 69 2.3 E 4 6 2 3 1024.0 - 0.0
30/12:00am 9.4 6.8 3.2 65 2.7 E 6 6 3 3 1024.0 1024.0 0.0
 
Date/Time
EST
Temp
°C
App
Temp
°C
Dew
Point
Rel
Hum
%
Delta-T
°C
Wind Press
QNH
hPa
Press
MSL
hPa
Rain
since 9 am
mm
Dir
 
Spd
km/h
Gust
km/h
Spd
kts
Gust
kts
29/11:30pm 11.0 8.1 2.8 57 3.6 E 7 9 4 5 1024.0 - 0.0
29/11:00pm 11.9 8.4 3.4 56 3.8 E 11 13 6 7 1024.0 1024.0 0.0
29/10:30pm 12.4 8.8 3.1 53 4.1 ESE 11 15 6 8 1024.1 - 0.0
29/10:00pm 12.8 9.2 2.9 51 4.4 E 11 13 6 7 1024.2 1024.2 0.0
29/09:30pm 13.4 10.1 2.3 47 4.9 ESE 9 13 5 7 1024.3 - 0.0
29/09:00pm 13.5 9.8 2.1 46 5.0 ESE 11 13 6 7 1024.3 1024.3 0.0
29/08:30pm 15.2 11.1 2.1 41 5.8 SE 13 15 7 8 1024.4 - 0.0
29/08:00pm 15.9 11.8 2.0 39 6.2 SE 13 15 7 8 1024.3 1024.3 0.0
29/07:30pm 16.3 12.5 1.6 37 6.5 SE 11 13 6 7 1024.1 - 0.0
29/07:00pm 16.5 12.6 1.4 36 6.7 SE 11 13 6 7 1023.9 1023.9 0.0
29/06:30pm 17.7 14.1 0.8 32 7.5 S 9 11 5 6 1023.7 - 0.0
29/06:00pm 19.1 15.1 0.7 29 8.2 S 11 17 6 9 1023.5 1023.5 0.0
29/05:30pm 21.0 17.1 1.3 27 9.0 S 11 17 6 9 1023.3 - 0.0
29/05:00pm 21.7 17.5 1.4 26 9.4 S 13 17 7 9 1023.1 1023.1 0.0
29/04:30pm 22.1 18.4 2.2 27 9.4 S 11 20 6 11 1023.1 - 0.0
29/04:00pm 22.6 18.4 1.6 25 9.8 SSE 13 22 7 12 1023.2 1023.2 0.0
29/03:30pm 22.7 19.0 2.2 26 9.7 S 11 20 6 11 1023.3 - 0.0
29/03:00pm 22.6 18.5 2.1 26 9.6 ESE 13 20 7 11 1023.3 1023.3 0.0
29/02:30pm 22.0 17.9 2.2 27 9.3 E 13 24 7 13 1023.7 - 0.0
29/02:00pm 22.0 18.4 2.7 28 9.1 S 11 17 6 9 1024.0 1024.0 0.0
29/01:30pm 21.9 17.9 2.6 28 9.2 S 13 22 7 12 1024.4 - 0.0
29/01:00pm 20.9 17.5 1.7 28 8.8 S 9 15 5 8 1025.0 1025.0 0.0
29/12:30pm 20.7 17.6 1.6 28 8.8 ENE 7 11 4 6 1025.6 - 0.0
29/12:00pm 20.0 15.5 1.9 30 8.3 E 15 28 8 15 1026.1 1026.1 0.0
29/11:30am 19.8 16.0 1.7 30 8.3 ENE 11 19 6 10 1026.5 - 0.0
29/11:00am 18.8 15.0 1.8 32 7.7 ESE 11 17 6 9 1027.0 1027.1 0.0
29/10:30am 18.3 14.3 3.0 36 7.1 E 13 17 7 9 1027.2 - 0.0
29/10:00am 17.5 13.9 3.0 38 6.7 E 11 17 6 9 1027.4 1027.5 0.0
29/09:30am 16.4 12.4 4.8 46 5.5 E 15 20 8 11 1027.5 - 0.0
29/09:00am 15.1 11.7 5.9 54 4.4 E 13 20 7 11 1027.5 1027.6 0.0
29/08:30am 12.9 10.0 6.5 65 3.1 ESE 11 15 6 8 1027.6 - 0.0
29/08:00am 10.3 7.7 5.9 74 2.0 SE 9 13 5 7 1027.5 1027.6 0.0
29/07:30am 9.1 6.3 5.3 77 1.7 SSE 9 11 5 6 1027.4 - 0.0
29/07:00am 7.8 4.6 4.9 82 1.3 SSE 11 13 6 7 1027.0 1027.1 0.0
29/06:30am 7.2 4.2 4.3 82 1.3 SSE 9 11 5 6 1026.6 - 0.0
29/06:00am 7.6 4.7 4.6 81 1.3 SSE 9 11 5 6 1026.0 1026.0 0.0
29/05:30am 8.2 4.9 4.8 79 1.5 SSE 11 13 6 7 1025.7 - 0.0
29/05:00am 8.2 5.3 4.4 77 1.7 SSE 9 13 5 7 1025.5 1025.5 0.0
29/04:30am 8.9 5.6 4.7 75 1.9 S 11 15 6 8 1025.3 - 0.0
29/04:00am 9.2 5.6 4.8 74 2.0 SSE 13 15 7 8 1025.3 1025.3 0.0
29/03:30am 9.0 5.7 4.4 73 2.0 SSE 11 13 6 7 1025.3 - 0.0
29/03:00am 9.8 6.1 4.4 69 2.4 S 13 17 7 9 1025.3 1025.3 0.0
29/02:30am 10.7 6.6 4.6 66 2.8 S 15 20 8 11 1025.3 - 0.0
29/02:00am 11.3 7.3 4.7 64 3.0 S 15 17 8 9 1025.6 1025.6 0.0
29/01:30am 11.4 7.9 5.5 67 2.7 S 13 15 7 8 1025.8 - 0.0
29/01:00am 10.7 7.5 5.3 69 2.5 S 11 13 6 7 1025.9 1025.9 0.0
29/12:30am 11.3 8.2 5.4 67 2.7 S 11 13 6 7 1025.8 - 0.0
29/12:00am 11.8 8.8 5.9 67 2.8 S 11 13 6 7 1025.9 1025.9 0.0
 
Date/Time
EST
Temp
°C
App
Temp
°C
Dew
Point
Rel
Hum
%
Delta-T
°C
Wind Press
QNH
hPa
Press
MSL
hPa
Rain
since 9 am
mm
Dir
 
Spd
km/h
Gust
km/h
Spd
kts
Gust
kts
28/11:30pm 12.0 9.3 5.6 65 3.0 S 9 11 5 6 1025.9 - 0.0
28/11:00pm 12.0 9.4 5.9 66 2.9 S 9 11 5 6 1025.9 1025.9 0.0
28/10:30pm 12.3 10.0 5.7 64 3.1 SSE 7 9 4 5 1026.0 - 0.0
28/10:00pm 12.8 10.1 5.7 62 3.3 S 9 11 5 6 1026.0 1026.0 0.0
28/09:30pm 13.4 10.7 5.8 60 3.6 SSE 9 11 5 6 1026.0 - 0.0
28/09:00pm 13.5 10.8 5.4 58 3.8 S 9 11 5 6 1025.8 1025.8 0.0
28/08:30pm 14.2 11.0 5.3 55 4.2 SSE 11 13 6 7 1025.6 - 0.0
28/08:00pm 14.9 11.8 5.4 53 4.5 SSE 11 13 6 7 1025.4 1025.4 0.0
28/07:30pm 16.0 12.4 5.0 48 5.2 SSE 13 15 7 8 1025.0 - 0.0
28/07:00pm 16.7 13.4 4.7 45 5.7 SSE 11 15 6 8 1024.8 1024.8 0.0
28/06:30pm 18.0 14.3 4.2 40 6.6 SSE 13 19 7 10 1024.6 - 0.0
28/06:00pm 18.8 14.5 3.0 35 7.3 S 15 20 8 11 1024.3 1024.3 0.0
28/05:30pm 20.0 15.5 2.4 31 8.2 S 15 20 8 11 1024.1 - 0.0
28/05:00pm 20.7 15.9 2.5 30 8.5 SSE 17 22 9 12 1023.7 1023.7 0.0
28/04:30pm 21.1 15.9 2.4 29 8.8 S 19 26 10 14 1023.4 - 0.0
28/04:00pm 21.2 15.7 2.0 28 8.9 S 20 28 11 15 1023.4 1023.4 0.0
28/03:30pm 21.2 15.8 1.5 27 9.1 S 19 28 10 15 1023.4 - 0.0
28/03:00pm 21.6 15.9 0.8 25 9.5 S 20 24 11 13 1023.6 1023.6 0.0
28/02:30pm 21.1 16.0 0.9 26 9.2 SSE 17 30 9 16 1023.8 - 0.0
28/02:00pm 21.1 15.7 1.4 27 9.0 SSE 19 24 10 13 1023.9 1023.9 0.0
28/01:30pm 20.4 14.2 -0.3 25 9.2 SSE 22 33 12 18 1024.3 - 0.0
28/01:00pm 20.7 14.4 1.6 28 8.8 SSE 24 32 13 17 1024.5 1024.5 0.0
28/12:30pm 20.5 15.3 2.3 30 8.5 S 19 24 10 13 1024.9 - 0.0
28/12:00pm 19.4 13.6 2.3 32 7.9 S 22 32 12 17 1025.5 1025.5 0.0
28/11:30am 19.3 13.9 2.6 33 7.8 S 20 32 11 17 1025.9 - 0.0
28/11:00am 18.4 14.0 4.6 40 6.6 SE 17 20 9 11 1026.1 1026.1 0.0
28/10:30am 17.4 13.5 5.4 45 5.8 SE 15 20 8 11 1026.2 - 0.0
28/10:00am 16.1 11.8 5.1 48 5.2 SSE 17 24 9 13 1026.3 1026.3 0.0
28/09:30am 14.9 10.1 5.7 54 4.4 SSE 20 26 11 14 1026.3 - 0.0
28/09:00am 13.8 9.1 6.2 60 3.6 SSE 20 26 11 14 1026.3 1026.3 0.0
28/08:30am 12.5 8.0 6.3 66 3.0 SSE 19 24 10 13 1026.1 - 0.0
28/08:00am 10.6 6.4 5.8 72 2.2 SSE 17 20 9 11 1025.9 1025.9 0.0
28/07:30am 9.6 5.7 5.4 75 1.9 S 15 19 8 10 1025.6 - 0.0
28/07:00am 8.9 4.6 5.3 78 1.6 SSE 17 20 9 11 1025.2 1025.2 0.0
28/06:30am 8.4 4.8 5.0 79 1.5 S 13 17 7 9 1024.9 - 0.0
28/06:00am 9.0 5.4 5.2 77 1.7 SSE 13 17 7 9 1024.5 1024.5 0.0
28/05:30am 9.4 5.1 5.4 76 1.8 SSE 17 22 9 12 1024.0 - 0.0
28/05:00am 9.6 5.7 5.4 75 1.9 SSE 15 20 8 11 1023.9 1023.9 0.0
28/04:30am 9.8 5.9 5.4 74 2.0 S 15 19 8 10 1023.7 - 0.0
28/04:00am 10.0 6.5 5.6 74 2.0 S 13 17 7 9 1023.7 1023.7 0.0
28/03:30am 10.4 6.9 5.6 72 2.2 S 13 17 7 9 1023.5 - 0.0
28/03:00am 10.9 7.9 5.9 71 2.3 S 11 15 6 8 1023.6 1023.6 0.0
28/02:30am 11.1 7.7 6.0 71 2.4 S 13 15 7 8 1023.7 - 0.0
28/02:00am 11.4 8.1 6.3 71 2.4 S 13 17 7 9 1023.6 1023.6 0.0
28/01:30am 11.8 8.5 6.6 70 2.5 S 13 17 7 9 1023.8 - 0.0
28/01:00am 12.1 8.8 6.6 69 2.6 S 13 15 7 8 1023.8 1023.8 0.0
28/12:30am 12.8 9.2 6.6 66 3.0 S 15 20 8 11 1024.0 - 0.0
28/12:00am 13.2 10.1 7.2 67 2.9 S 13 20 7 11 1024.0 1024.0 0.0
 
Date/Time
EST
Temp
°C
App
Temp
°C
Dew
Point
Rel
Hum
%
Delta-T
°C
Wind Press
QNH
hPa
Press
MSL
hPa
Rain
since 9 am
mm
Dir
 
Spd
km/h
Gust
km/h
Spd
kts
Gust
kts
27/11:30pm 13.3 10.3 7.5 68 2.9 S 13 17 7 9 1024.2 - 0.0
27/11:00pm 12.5 10.2 7.4 71 2.5 S 9 15 5 8 1024.2 1024.2 0.0
27/10:30pm 11.4 8.9 6.7 73 2.2 SSW 9 11 5 6 1024.0 - 0.0
27/10:00pm 13.0 10.5 8.3 73 2.3 S 11 11 6 6 1024.0 1024.0 0.0
27/09:30pm 11.6 9.5 6.7 72 2.3 S 7 9 4 5 1024.0 - 0.0
27/09:00pm 13.0 11.0 7.0 67 2.9 S 7 9 4 5 1023.9 1023.9 0.0
27/08:30pm 14.7 12.4 7.5 62 3.6 S 9 11 5 6 1023.7 - 0.0
27/08:00pm 15.3 13.0 7.6 60 3.8 SSE 9 13 5 7 1023.6 1023.6 0.0
27/07:30pm 16.0 13.3 7.5 57 4.3 SSE 11 13 6 7 1023.3 - 0.0
27/07:00pm 17.2 14.3 8.1 55 4.6 SSE 13 17 7 9 1023.1 1023.1 0.0
27/06:30pm 18.2 15.3 8.2 52 5.2 S 13 20 7 11 1022.6 - 0.0
27/06:00pm 18.7 15.9 8.4 51 5.3 SSE 13 19 7 10 1022.4 1022.4 0.0
27/05:30pm 19.9 16.1 7.6 45 6.3 SSE 17 24 9 13 1022.1 - 0.0
27/05:00pm 20.8 16.9 7.1 41 7.0 ESE 17 22 9 12 1021.8 1021.8 0.0
27/04:30pm 21.4 18.1 8.0 42 7.0 SE 15 20 8 11 1021.7 - 0.0

Other Formats:

Comma delimited format used in spreadsheet applications
http://www.bom.gov.au/fwo/IDN60801/IDN60801.94703.axf

JavaScript Object Notation format (JSON) in row-major order
http://www.bom.gov.au/fwo/IDN60801/IDN60801.94703.json